Time;durP1;ratioP1;P1;durP2;ratioP2;P2;SDS_P1;SDS_P2;PMS_P1;PMS_P2;Temp;Humidity;BMP_temperature;BMP_pressure;BME280_temperature;BME280_humidity;BME280_pressure;Samples;Min_cycle;Max_cycle;Signal;HPM_P1;HPM_P2
2022/12/28 00:00:04;;;;;;;;;;;4.90;99.90;;;;;;5032019;28;19908;-72
2022/12/28 00:02:29;;;;;;;;;;;5.10;99.90;;;;;;5018855;28;20414;-69
2022/12/28 00:04:55;;;;;;;;;;;5.30;99.90;;;;;;5017178;28;19909;-65
2022/12/28 00:07:21;;;;;;;;;;;5.40;99.90;;;;;;5017025;28;19913;-65
2022/12/28 00:09:46;;;;;;;;;;;5.40;99.90;;;;;;5017204;28;19940;-70
2022/12/28 00:12:12;;;;;;;;;;;5.40;99.90;;;;;;5017213;28;19915;-65
2022/12/28 00:14:37;;;;;;;;;;;5.20;99.90;;;;;;5017055;28;19909;-70
2022/12/28 00:17:03;;;;;;;;;;;4.60;99.90;;;;;;5017050;28;19972;-65
2022/12/28 00:19:28;;;;;;;;;;;4.50;99.90;;;;;;4999557;28;20341;-71
2022/12/28 00:21:54;;;;;;;;;;;4.40;99.90;;;;;;5017010;28;19909;-65
2022/12/28 00:24:21;;;;;;;;;;;4.40;99.90;;;;;;5016988;28;20008;-65
2022/12/28 00:26:47;;;;;;;;;;;4.60;99.90;;;;;;5017047;28;20277;-65
2022/12/28 00:29:12;;;;;;;;;;;4.70;99.90;;;;;;5017117;28;19916;-68
2022/12/28 00:31:38;;;;;;;;;;;4.60;99.90;;;;;;5017130;28;20360;-68
2022/12/28 00:34:03;;;;;;;;;;;4.70;99.90;;;;;;5015774;28;19913;-65
2022/12/28 00:36:30;;;;;;;;;;;4.70;99.90;;;;;;5015816;28;19913;-66
2022/12/28 00:38:56;;;;;;;;;;;4.80;99.90;;;;;;5016152;28;19916;-65
2022/12/28 00:41:22;;;;;;;;;;;4.90;99.90;;;;;;5016023;28;19909;-65
2022/12/28 00:43:48;;;;;;;;;;;;;;;;;;5016803;28;20375;-70
2022/12/28 00:46:14;;;;;;;;;;;5.00;99.90;;;;;;5015992;28;19909;-66
2022/12/28 00:48:41;;;;;;;;;;;5.00;99.90;;;;;;5016178;28;19992;-66
2022/12/28 00:51:08;;;;;;;;;;;5.00;99.90;;;;;;5016091;28;19959;-66
2022/12/28 00:53:34;;;;;;;;;;;5.00;99.90;;;;;;5016118;28;19909;-65
2022/12/28 00:56:04;;;;;;;;;;;5.00;99.90;;;;;;5016866;28;19915;-71
2022/12/28 00:58:29;;;;;;;;;;;5.10;99.90;;;;;;5016142;28;19917;-71
2022/12/28 01:00:55;;;;;;;;;;;5.00;99.90;;;;;;5015782;28;19909;-72
2022/12/28 01:03:20;;;;;;;;;;;5.00;99.90;;;;;;5015639;28;20368;-71
2022/12/28 01:05:46;;;;;;;;;;;4.90;99.90;;;;;;5016207;28;19967;-70
2022/12/28 01:08:11;;;;;;;;;;;5.00;99.90;;;;;;5015831;28;19914;-65
2022/12/28 01:10:38;;;;;;;;;;;4.90;99.90;;;;;;5015872;28;20398;-72
2022/12/28 01:13:03;;;;;;;;;;;4.80;99.90;;;;;;5016070;28;19955;-66
2022/12/28 01:15:29;;;;;;;;;;;4.90;99.90;;;;;;5015409;28;19948;-65
2022/12/28 01:17:54;;;;;;;;;;;5.00;99.90;;;;;;5015388;28;20273;-72
2022/12/28 01:20:20;;;;;;;;;;;5.10;99.90;;;;;;5015579;28;19909;-65
2022/12/28 01:22:46;;;;;;;;;;;5.00;99.90;;;;;;5015842;28;20417;-69
2022/12/28 01:25:12;;;;;;;;;;;4.90;99.90;;;;;;5015616;28;19916;-65
2022/12/28 01:27:38;;;;;;;;;;;5.00;99.90;;;;;;4997433;28;19909;-71
2022/12/28 01:30:04;;;;;;;;;;;4.80;99.90;;;;;;5015543;28;19939;-65
2022/12/28 01:32:30;;;;;;;;;;;4.80;99.90;;;;;;4998267;28;19913;-69
2022/12/28 01:34:55;;;;;;;;;;;4.80;99.90;;;;;;5015557;28;19991;-65
2022/12/28 01:37:21;;;;;;;;;;;4.70;99.90;;;;;;5015449;28;20360;-65
2022/12/28 01:39:46;;;;;;;;;;;4.90;99.90;;;;;;5015295;28;19909;-65
2022/12/28 01:42:16;;;;;;;;;;;4.90;99.90;;;;;;5015581;28;20368;-65
2022/12/28 01:44:43;;;;;;;;;;;5.00;99.90;;;;;;5015358;28;20285;-70
2022/12/28 01:47:11;;;;;;;;;;;4.90;99.90;;;;;;4997898;28;19923;-71
2022/12/28 01:49:43;;;;;;;;;;;4.60;99.90;;;;;;5015263;28;19909;-70
2022/12/28 01:52:09;;;;;;;;;;;4.70;99.90;;;;;;4997378;28;19909;-70
2022/12/28 01:54:37;;;;;;;;;;;4.70;99.90;;;;;;5015032;28;19940;-65
2022/12/28 01:57:02;;;;;;;;;;;4.70;99.90;;;;;;5015045;28;19924;-72
2022/12/28 01:59:30;;;;;;;;;;;4.80;99.90;;;;;;5014747;28;20280;-68
2022/12/28 02:01:56;;;;;;;;;;;4.80;99.90;;;;;;5011981;28;19937;-70
2022/12/28 02:04:23;;;;;;;;;;;4.90;99.90;;;;;;5015151;28;19929;-65
2022/12/28 02:06:48;;;;;;;;;;;5.00;99.90;;;;;;5015198;28;19917;-66
2022/12/28 02:09:19;;;;;;;;;;;4.90;99.90;;;;;;5015011;28;20583;-65
2022/12/28 02:11:45;;;;;;;;;;;4.80;99.90;;;;;;5015070;28;20345;-66
2022/12/28 02:14:12;;;;;;;;;;;4.90;99.90;;;;;;5014790;28;19932;-65
2022/12/28 02:16:38;;;;;;;;;;;5.00;99.90;;;;;;5014686;28;19909;-69
2022/12/28 02:19:04;;;;;;;;;;;4.90;99.90;;;;;;5014796;28;19987;-65
2022/12/28 02:21:30;;;;;;;;;;;5.10;99.90;;;;;;4997164;28;19920;-65
2022/12/28 02:24:08;;;;;;;;;;;5.20;99.90;;;;;;5014942;28;19913;-71
2022/12/28 02:26:51;;;;;;;;;;;5.30;99.90;;;;;;5014620;28;20000;-64
2022/12/28 02:29:26;;;;;;;;;;;5.30;99.90;;;;;;5014692;28;19909;-70
2022/12/28 02:31:57;;;;;;;;;;;5.30;99.90;;;;;;5014362;28;20004;-71
2022/12/28 02:34:25;;;;;;;;;;;5.30;99.90;;;;;;5013582;28;20396;-65
2022/12/28 02:37:04;;;;;;;;;;;5.10;99.90;;;;;;5014333;28;19925;-68
2022/12/28 02:39:33;;;;;;;;;;;4.90;99.90;;;;;;5013773;28;19948;-71
2022/12/28 02:41:58;;;;;;;;;;;4.70;99.90;;;;;;5014232;28;19910;-69
2022/12/28 02:50:07;;;;;;;;;;;4.90;99.90;;;;;;4995560;28;19919;-71
2022/12/28 02:52:52;;;;;;;;;;;4.70;99.90;;;;;;5013398;28;20014;-71
2022/12/28 02:58:11;;;;;;;;;;;5.00;99.90;;;;;;5013948;28;20383;-65
2022/12/28 03:00:36;;;;;;;;;;;5.10;99.90;;;;;;5013996;28;20272;-69
2022/12/28 03:03:08;;;;;;;;;;;5.10;99.90;;;;;;5010597;28;19909;-71
2022/12/28 03:08:20;;;;;;;;;;;5.00;99.90;;;;;;5014210;28;20056;-71
2022/12/28 03:10:51;;;;;;;;;;;5.00;99.90;;;;;;4996947;28;20376;-71
2022/12/28 03:13:43;;;;;;;;;;;5.10;99.90;;;;;;4996884;28;20000;-69
2022/12/28 03:16:26;;;;;;;;;;;5.40;99.90;;;;;;5014535;28;19916;-71
2022/12/28 03:32:48;;;;;;;;;;;4.80;99.90;;;;;;5001048;28;19971;-71
2022/12/28 03:35:16;;;;;;;;;;;4.90;99.90;;;;;;5017531;28;19948;-72
2022/12/28 03:38:01;;;;;;;;;;;4.80;99.90;;;;;;5017557;28;20320;-66
2022/12/28 03:40:36;;;;;;;;;;;5.00;99.90;;;;;;5017252;28;19959;-71
2022/12/28 03:45:52;;;;;;;;;;;5.20;99.90;;;;;;5017391;28;19916;-65
2022/12/28 03:48:18;;;;;;;;;;;5.20;99.90;;;;;;5017261;28;19914;-65
2022/12/28 03:50:46;;;;;;;;;;;5.10;99.90;;;;;;5017029;28;20008;-65
2022/12/28 03:53:11;;;;;;;;;;;4.60;99.90;;;;;;5017384;28;19910;-71
2022/12/28 03:55:38;;;;;;;;;;;4.30;99.90;;;;;;4999538;28;20281;-65
2022/12/28 03:58:04;;;;;;;;;;;4.30;99.90;;;;;;5016965;28;19968;-65
2022/12/28 04:00:30;;;;;;;;;;;4.30;99.90;;;;;;4999438;28;20333;-66
2022/12/28 04:02:55;;;;;;;;;;;4.40;99.90;;;;;;5016371;28;20004;-69
2022/12/28 04:05:21;;;;;;;;;;;4.40;99.90;;;;;;5014961;28;19948;-65
2022/12/28 04:07:47;;;;;;;;;;;4.30;99.90;;;;;;5017246;28;19917;-65
2022/12/28 04:10:13;;;;;;;;;;;4.40;99.90;;;;;;5017193;28;19910;-72
2022/12/28 04:12:38;;;;;;;;;;;4.20;99.90;;;;;;5017400;28;19916;-70
2022/12/28 04:15:05;;;;;;;;;;;3.60;99.90;;;;;;5017247;28;20385;-65
2022/12/28 04:17:30;;;;;;;;;;;3.40;99.90;;;;;;4999316;28;20004;-71
2022/12/28 04:19:56;;;;;;;;;;;3.40;99.90;;;;;;5017156;28;20008;-71
2022/12/28 04:22:21;;;;;;;;;;;3.50;99.90;;;;;;5016908;28;20456;-71
2022/12/28 04:24:47;;;;;;;;;;;3.70;99.90;;;;;;4999170;28;19917;-69
2022/12/28 04:27:12;;;;;;;;;;;3.90;99.90;;;;;;5016812;28;19910;-65
2022/12/28 04:29:38;;;;;;;;;;;4.00;99.90;;;;;;5016736;28;19916;-70
2022/12/28 04:32:04;;;;;;;;;;;4.00;99.90;;;;;;5016787;28;19916;-65
2022/12/28 04:34:29;;;;;;;;;;;4.10;99.90;;;;;;5016782;28;19920;-69
2022/12/28 04:36:55;;;;;;;;;;;4.30;99.90;;;;;;5016467;28;20277;-65
2022/12/28 04:39:21;;;;;;;;;;;4.40;99.90;;;;;;5015403;28;19916;-66
2022/12/28 04:41:46;;;;;;;;;;;4.50;99.90;;;;;;5015832;28;19913;-70
2022/12/28 04:44:12;;;;;;;;;;;4.40;99.90;;;;;;5015638;28;19909;-71
2022/12/28 04:46:37;;;;;;;;;;;4.30;99.90;;;;;;5016152;28;19952;-71
2022/12/28 04:49:03;;;;;;;;;;;4.50;99.90;;;;;;5016061;28;19963;-66
2022/12/28 04:51:29;;;;;;;;;;;4.50;99.90;;;;;;5016234;28;19909;-71
2022/12/28 04:53:55;;;;;;;;;;;4.50;99.90;;;;;;5016035;28;19909;-67
2022/12/28 04:56:21;;;;;;;;;;;4.60;99.90;;;;;;5016070;28;19938;-71
2022/12/28 04:58:47;;;;;;;;;;;4.60;99.90;;;;;;5016128;28;19921;-71
2022/12/28 05:01:14;;;;;;;;;;;4.90;99.90;;;;;;5015901;28;20415;-71
2022/12/28 05:03:41;;;;;;;;;;;4.60;99.90;;;;;;5015460;28;19952;-71
2022/12/28 05:06:10;;;;;;;;;;;4.80;99.90;;;;;;5015289;28;20361;-71
2022/12/28 05:08:36;;;;;;;;;;;4.90;99.90;;;;;;5015778;28;19921;-65
2022/12/28 05:11:03;;;;;;;;;;;4.90;99.90;;;;;;5016105;28;19945;-65
2022/12/28 05:13:28;;;;;;;;;;;5.00;99.90;;;;;;5015846;28;20384;-70
2022/12/28 05:15:54;;;;;;;;;;;4.90;99.90;;;;;;5015709;28;19910;-65
2022/12/28 05:18:20;;;;;;;;;;;4.80;99.90;;;;;;5016004;28;19918;-65
2022/12/28 05:20:45;;;;;;;;;;;4.70;99.90;;;;;;5015976;28;19936;-71
2022/12/28 05:23:11;;;;;;;;;;;4.70;99.90;;;;;;5016024;28;19935;-71
2022/12/28 05:25:37;;;;;;;;;;;4.80;99.90;;;;;;5015898;28;19916;-64
2022/12/28 05:28:02;;;;;;;;;;;4.80;99.90;;;;;;5015662;28;19915;-65
2022/12/28 05:30:28;;;;;;;;;;;4.90;99.90;;;;;;5015517;28;20288;-71
2022/12/28 05:32:53;;;;;;;;;;;4.80;99.90;;;;;;5015802;28;19916;-65
2022/12/28 05:35:19;;;;;;;;;;;4.80;99.90;;;;;;5015689;28;20310;-70
2022/12/28 05:37:45;;;;;;;;;;;4.80;99.90;;;;;;5015547;28;19918;-65
2022/12/28 05:40:10;;;;;;;;;;;4.50;99.90;;;;;;5015628;28;19916;-71
2022/12/28 05:42:36;;;;;;;;;;;4.40;99.90;;;;;;4997738;28;20276;-70
2022/12/28 05:45:02;;;;;;;;;;;4.50;99.90;;;;;;5014727;28;20337;-65
2022/12/28 05:47:27;;;;;;;;;;;4.10;99.90;;;;;;5007504;28;20030;-64
2022/12/28 05:49:53;;;;;;;;;;;4.20;99.90;;;;;;5012693;28;19909;-64
2022/12/28 05:52:18;;;;;;;;;;;4.10;99.90;;;;;;5015246;28;19998;-71
2022/12/28 05:54:44;;;;;;;;;;;4.40;99.90;;;;;;5015247;28;19910;-67
2022/12/28 05:57:10;;;;;;;;;;;4.50;99.90;;;;;;5014627;28;19949;-71
2022/12/28 05:59:35;;;;;;;;;;;4.50;99.90;;;;;;5014810;28;19917;-66
2022/12/28 06:02:01;;;;;;;;;;;4.40;99.90;;;;;;5014466;28;19987;-72
2022/12/28 06:04:26;;;;;;;;;;;4.30;99.90;;;;;;4993635;28;19917;-71
2022/12/28 06:06:53;;;;;;;;;;;4.10;99.90;;;;;;5014690;28;20465;-66
2022/12/28 06:09:18;;;;;;;;;;;3.90;99.90;;;;;;4996899;28;19913;-71
2022/12/28 06:11:45;;;;;;;;;;;3.70;99.90;;;;;;5008652;28;20032;-66
2022/12/28 06:14:10;;;;;;;;;;;3.60;99.90;;;;;;4995251;28;19909;-71
2022/12/28 06:16:39;;;;;;;;;;;3.60;99.90;;;;;;4992657;28;19913;-70
2022/12/28 06:19:06;;;;;;;;;;;3.70;99.90;;;;;;4996563;28;19918;-72
2022/12/28 06:21:33;;;;;;;;;;;3.70;99.90;;;;;;5014713;28;19909;-65
2022/12/28 06:23:59;;;;;;;;;;;3.80;99.90;;;;;;5014591;28;20281;-72
2022/12/28 06:26:26;;;;;;;;;;;3.90;99.90;;;;;;5013746;28;19909;-66
2022/12/28 06:28:51;;;;;;;;;;;3.90;99.90;;;;;;5014487;28;20324;-71
2022/12/28 06:31:18;;;;;;;;;;;3.90;99.90;;;;;;5014290;28;19992;-66
2022/12/28 06:33:44;;;;;;;;;;;4.10;99.90;;;;;;4996675;28;19936;-66
2022/12/28 06:36:11;;;;;;;;;;;4.20;99.90;;;;;;5014616;28;19916;-71
2022/12/28 06:38:36;;;;;;;;;;;4.20;99.90;;;;;;5014246;28;19925;-69
2022/12/28 06:41:03;;;;;;;;;;;4.20;99.90;;;;;;5014337;28;20261;-66
2022/12/28 06:43:33;;;;;;;;;;;4.30;99.90;;;;;;5008921;28;19910;-71
2022/12/28 06:45:58;;;;;;;;;;;4.10;99.90;;;;;;5007890;28;19991;-70
2022/12/28 06:48:24;;;;;;;;;;;3.90;99.90;;;;;;5014094;28;20016;-65
2022/12/28 06:50:53;;;;;;;;;;;3.70;99.90;;;;;;5013898;28;19910;-70
2022/12/28 06:53:19;;;;;;;;;;;3.60;99.90;;;;;;4994774;28;19956;-66
2022/12/28 06:55:50;;;;;;;;;;;3.40;99.90;;;;;;5002808;28;19910;-71
2022/12/28 06:58:16;;;;;;;;;;;3.20;99.90;;;;;;5014013;28;19975;-71
2022/12/28 07:00:41;;;;;;;;;;;3.20;99.90;;;;;;5014270;28;19909;-68
2022/12/28 07:03:07;;;;;;;;;;;3.30;99.90;;;;;;5017545;28;20341;-71
2022/12/28 07:05:33;;;;;;;;;;;3.50;99.90;;;;;;5017927;28;19917;-66
2022/12/28 07:07:58;;;;;;;;;;;3.40;99.90;;;;;;5013825;28;19920;-70
2022/12/28 07:10:24;;;;;;;;;;;3.50;99.90;;;;;;5016162;28;20020;-66
2022/12/28 07:12:49;;;;;;;;;;;3.40;99.90;;;;;;5018235;28;19910;-72
2022/12/28 07:15:15;;;;;;;;;;;3.50;99.90;;;;;;5018522;28;20011;-68
2022/12/28 07:17:40;;;;;;;;;;;3.10;99.90;;;;;;5018200;28;20410;-72
2022/12/28 07:20:06;;;;;;;;;;;2.90;99.90;;;;;;5018023;28;20315;-71
2022/12/28 07:22:32;;;;;;;;;;;2.80;99.90;;;;;;5018070;28;19910;-72
2022/12/28 07:24:57;;;;;;;;;;;2.90;99.90;;;;;;5017708;28;20345;-71
2022/12/28 07:27:23;;;;;;;;;;;3.30;99.90;;;;;;5018002;28;19915;-72
2022/12/28 07:29:48;;;;;;;;;;;3.60;99.90;;;;;;5018010;28;19936;-70
2022/12/28 07:32:14;;;;;;;;;;;3.80;99.90;;;;;;5017747;28;19909;-65
2022/12/28 07:34:40;;;;;;;;;;;3.90;99.90;;;;;;5017969;28;19918;-70
2022/12/28 07:37:05;;;;;;;;;;;3.90;99.90;;;;;;5017814;28;20320;-66
2022/12/28 07:39:31;;;;;;;;;;;3.90;99.90;;;;;;4999710;28;19936;-67
2022/12/28 07:41:56;;;;;;;;;;;3.90;99.90;;;;;;5017657;28;19916;-70
2022/12/28 07:44:22;;;;;;;;;;;4.10;99.90;;;;;;5017771;28;20371;-66
2022/12/28 07:46:47;;;;;;;;;;;4.00;99.90;;;;;;5016361;28;19992;-70
2022/12/28 07:49:13;;;;;;;;;;;3.90;99.90;;;;;;5017643;28;19913;-72
2022/12/28 07:51:39;;;;;;;;;;;4.10;99.90;;;;;;5017611;28;20284;-71
2022/12/28 07:54:05;;;;;;;;;;;4.20;99.90;;;;;;5016533;28;20000;-66
2022/12/28 07:56:31;;;;;;;;;;;4.30;99.90;;;;;;5016846;28;19909;-70
2022/12/28 07:58:57;;;;;;;;;;;4.40;99.90;;;;;;5017082;28;19944;-68
2022/12/28 08:01:24;;;;;;;;;;;4.50;99.90;;;;;;4996112;28;19910;-66
2022/12/28 08:03:50;;;;;;;;;;;;;;;;;;5014341;28;20392;-66
2022/12/28 08:06:21;;;;;;;;;;;5.10;99.90;;;;;;5016751;28;19914;-70
2022/12/28 08:08:48;;;;;;;;;;;5.20;99.90;;;;;;5016558;28;19963;-66
2022/12/28 08:11:16;;;;;;;;;;;5.20;99.90;;;;;;5016700;28;19956;-72
2022/12/28 08:13:43;;;;;;;;;;;5.30;99.90;;;;;;5011326;28;20341;-72
2022/12/28 08:16:10;;;;;;;;;;;5.40;99.90;;;;;;5016417;28;19909;-69
2022/12/28 08:18:35;;;;;;;;;;;5.40;99.90;;;;;;4998354;28;20373;-66
2022/12/28 08:21:02;;;;;;;;;;;5.60;99.90;;;;;;4999019;28;19916;-66
2022/12/28 08:23:29;;;;;;;;;;;5.60;99.90;;;;;;5016060;28;19909;-71
2022/12/28 08:25:55;;;;;;;;;;;5.80;99.90;;;;;;5016030;28;19963;-66
2022/12/28 08:28:20;;;;;;;;;;;5.10;99.90;;;;;;4998972;28;19995;-72
2022/12/28 08:30:46;;;;;;;;;;;4.90;99.90;;;;;;5016323;28;20400;-71
2022/12/28 08:33:11;;;;;;;;;;;4.90;99.90;;;;;;5016529;28;19910;-72
2022/12/28 08:35:37;;;;;;;;;;;5.00;99.90;;;;;;5016581;28;20040;-72
2022/12/28 08:38:03;;;;;;;;;;;5.10;99.90;;;;;;5016341;28;19926;-67
2022/12/28 08:40:29;;;;;;;;;;;5.10;99.90;;;;;;5016314;28;19935;-72
2022/12/28 08:42:58;;;;;;;;;;;5.30;99.90;;;;;;4998799;28;19913;-66
2022/12/28 08:45:24;;;;;;;;;;;5.20;99.90;;;;;;5016282;28;19913;-72
2022/12/28 08:47:49;;;;;;;;;;;5.40;99.90;;;;;;5015700;28;19910;-72
2022/12/28 08:50:15;;;;;;;;;;;5.70;99.90;;;;;;5015929;28;19984;-68
2022/12/28 08:52:40;;;;;;;;;;;5.90;99.90;;;;;;5016200;28;19914;-72
2022/12/28 08:55:06;;;;;;;;;;;5.80;99.90;;;;;;5015308;28;19913;-73
2022/12/28 08:57:32;;;;;;;;;;;5.70;99.90;;;;;;5015966;28;19972;-67
2022/12/28 08:59:58;;;;;;;;;;;6.10;99.90;;;;;;4998349;28;19964;-69
2022/12/28 09:02:23;;;;;;;;;;;6.00;99.90;;;;;;5015876;28;19909;-72
2022/12/28 09:04:49;;;;;;;;;;;6.10;99.90;;;;;;5015593;28;19985;-73
2022/12/28 09:07:14;;;;;;;;;;;6.10;99.90;;;;;;5015709;28;19967;-66
2022/12/28 09:09:40;;;;;;;;;;;6.30;99.90;;;;;;5015713;28;19910;-70
2022/12/28 09:12:06;;;;;;;;;;;6.40;99.90;;;;;;5008382;28;19916;-71
2022/12/28 09:14:32;;;;;;;;;;;6.50;99.90;;;;;;4978744;28;20281;-66
2022/12/28 09:16:57;;;;;;;;;;;6.70;99.90;;;;;;5012573;28;19909;-70
2022/12/28 09:19:23;;;;;;;;;;;6.50;99.90;;;;;;5015812;28;20000;-67
2022/12/28 09:21:51;;;;;;;;;;;6.70;99.90;;;;;;5015948;28;19909;-70
2022/12/28 09:24:16;;;;;;;;;;;7.10;99.90;;;;;;5014793;28;19980;-71
2022/12/28 09:26:42;;;;;;;;;;;7.40;99.90;;;;;;5015651;28;19909;-67
2022/12/28 09:29:10;;;;;;;;;;;7.70;99.90;;;;;;5015706;28;19909;-70
2022/12/28 09:31:36;;;;;;;;;;;7.90;99.90;;;;;;5015869;28;20361;-66
2022/12/28 09:34:05;;;;;;;;;;;8.10;99.90;;;;;;5014113;28;19916;-67
2022/12/28 09:36:35;;;;;;;;;;;8.10;99.90;;;;;;5015582;28;19982;-72
2022/12/28 09:39:05;;;;;;;;;;;7.70;99.90;;;;;;5011131;28;20419;-71
2022/12/28 09:41:30;;;;;;;;;;;7.30;99.90;;;;;;4996138;28;19910;-71
2022/12/28 09:44:07;;;;;;;;;;;7.00;99.90;;;;;;4996073;28;19944;-72
2022/12/28 09:46:33;;;;;;;;;;;7.10;99.90;;;;;;5013848;28;19910;-67
2022/12/28 09:49:01;;;;;;;;;;;7.10;99.90;;;;;;5015254;28;19916;-71
2022/12/28 09:51:34;;;;;;;;;;;7.20;99.90;;;;;;5015217;28;20328;-69
2022/12/28 09:54:00;;;;;;;;;;;7.30;99.90;;;;;;5021868;28;19916;-71
2022/12/28 09:56:25;;;;;;;;;;;7.50;99.90;;;;;;5007233;28;19992;-66
2022/12/28 09:58:51;;;;;;;;;;;7.80;99.90;;;;;;5005174;28;19921;-67
2022/12/28 10:01:17;;;;;;;;;;;8.00;99.90;;;;;;5012122;28;19952;-70
2022/12/28 10:03:43;;;;;;;;;;;8.20;99.90;;;;;;5012322;28;19910;-67
2022/12/28 10:06:11;;;;;;;;;;;8.40;99.90;;;;;;4994170;28;19916;-70
2022/12/28 10:08:45;;;;;;;;;;;8.40;99.90;;;;;;5009763;28;19917;-67
2022/12/28 10:11:15;;;;;;;;;;;8.10;99.90;;;;;;5011953;28;20000;-72
2022/12/28 10:13:40;;;;;;;;;;;8.20;99.90;;;;;;4996647;28;19913;-66
2022/12/28 10:16:13;;;;;;;;;;;8.00;99.90;;;;;;4996694;28;19913;-70
2022/12/28 10:18:38;;;;;;;;;;;8.30;99.90;;;;;;5014497;28;20277;-69
2022/12/28 10:21:04;;;;;;;;;;;8.30;99.90;;;;;;4995344;28;19910;-67
2022/12/28 10:23:31;;;;;;;;;;;8.20;99.90;;;;;;5012826;28;19913;-71
2022/12/28 10:25:57;;;;;;;;;;;8.00;99.90;;;;;;4994208;28;19920;-68
2022/12/28 10:28:27;;;;;;;;;;;7.80;99.90;;;;;;5011929;28;20047;-67
2022/12/28 10:31:03;;;;;;;;;;;7.70;99.90;;;;;;5012405;28;19913;-67
2022/12/28 10:33:29;;;;;;;;;;;7.80;99.90;;;;;;5013579;28;19910;-70
2022/12/28 10:35:55;;;;;;;;;;;8.00;99.90;;;;;;5012398;28;19983;-66
2022/12/28 10:38:32;;;;;;;;;;;7.90;99.90;;;;;;5011552;28;20357;-67
2022/12/28 10:41:04;;;;;;;;;;;7.80;99.90;;;;;;4994699;28;19916;-67
2022/12/28 10:43:33;;;;;;;;;;;8.20;99.90;;;;;;5012871;28;19914;-66
2022/12/28 10:45:59;;;;;;;;;;;8.30;99.90;;;;;;5012252;28;19910;-66
2022/12/28 10:48:29;;;;;;;;;;;7.60;99.90;;;;;;5011482;28;19995;-66
2022/12/28 10:51:16;;;;;;;;;;;7.80;99.90;;;;;;5011597;28;19917;-67
2022/12/28 10:53:46;;;;;;;;;;;8.10;99.90;;;;;;5013685;28;19993;-66
2022/12/28 10:56:11;;;;;;;;;;;8.20;99.90;;;;;;5013875;28;19909;-67
2022/12/28 10:58:38;;;;;;;;;;;8.10;99.90;;;;;;5013636;28;19924;-67
2022/12/28 11:01:12;;;;;;;;;;;8.30;99.90;;;;;;5012107;28;19915;-67
2022/12/28 11:03:42;;;;;;;;;;;8.50;99.90;;;;;;5011791;28;20052;-66
2022/12/28 11:06:18;;;;;;;;;;;8.50;99.90;;;;;;5013075;28;20051;-67
2022/12/28 11:08:44;;;;;;;;;;;8.50;99.90;;;;;;5027039;28;19921;-66
2022/12/28 11:11:21;;;;;;;;;;;8.50;99.90;;;;;;5011939;28;19916;-71
2022/12/28 11:13:52;;;;;;;;;;;8.20;99.90;;;;;;5012151;28;19940;-66
2022/12/28 11:16:18;;;;;;;;;;;8.70;99.90;;;;;;5010468;28;20365;-66
2022/12/28 11:18:43;;;;;;;;;;;8.80;99.90;;;;;;5011677;28;19917;-67
2022/12/28 11:21:10;;;;;;;;;;;8.60;99.90;;;;;;5010308;28;20320;-67
2022/12/28 11:23:36;;;;;;;;;;;8.40;99.90;;;;;;5007023;28;20280;-65
2022/12/28 11:26:02;;;;;;;;;;;8.30;99.90;;;;;;5001534;28;19982;-66
2022/12/28 11:28:29;;;;;;;;;;;7.90;99.90;;;;;;5018808;28;20353;-66
2022/12/28 11:30:56;;;;;;;;;;;7.90;99.90;;;;;;5022978;28;20365;-67
2022/12/28 11:33:27;;;;;;;;;;;8.20;99.90;;;;;;5017751;28;19941;-67
2022/12/28 11:35:54;;;;;;;;;;;8.70;99.90;;;;;;5020139;28;19913;-67
2022/12/28 11:38:39;;;;;;;;;;;9.10;99.90;;;;;;5023121;28;19923;-66
2022/12/28 11:41:05;;;;;;;;;;;9.20;99.90;;;;;;5018627;28;19944;-66
2022/12/28 11:43:38;;;;;;;;;;;8.90;99.90;;;;;;5004223;28;19940;-66
2022/12/28 11:46:06;;;;;;;;;;;9.20;99.90;;;;;;4997194;28;19916;-66
2022/12/28 11:48:46;;;;;;;;;;;9.30;99.90;;;;;;5002675;28;19996;-68
2022/12/28 11:51:31;;;;;;;;;;;9.50;99.90;;;;;;5025261;28;19909;-66
2022/12/28 11:54:02;;;;;;;;;;;9.60;99.90;;;;;;5025235;28;19948;-67
2022/12/28 11:56:43;;;;;;;;;;;9.90;99.90;;;;;;5024124;28;19915;-69
2022/12/28 11:59:21;;;;;;;;;;;9.90;99.90;;;;;;5007926;28;20365;-73
2022/12/28 12:01:47;;;;;;;;;;;9.60;99.90;;;;;;5015976;28;19956;-69
2022/12/28 12:04:27;;;;;;;;;;;9.30;99.90;;;;;;5013972;28;20308;-73
2022/12/28 12:06:53;;;;;;;;;;;9.40;99.90;;;;;;5005194;28;19914;-74
2022/12/28 12:09:24;;;;;;;;;;;9.40;99.90;;;;;;5004789;28;19959;-73
2022/12/28 12:11:54;;;;;;;;;;;9.50;99.90;;;;;;5003950;28;20008;-70
2022/12/28 12:14:26;;;;;;;;;;;9.40;99.90;;;;;;5013390;28;19951;-73
2022/12/28 12:17:10;;;;;;;;;;;9.40;99.90;;;;;;5015030;28;19963;-74
2022/12/28 12:19:36;;;;;;;;;;;9.50;99.90;;;;;;4996940;28;20372;-67
2022/12/28 12:22:02;;;;;;;;;;;9.70;99.90;;;;;;5004109;28;19996;-67
2022/12/28 12:24:33;;;;;;;;;;;9.70;99.90;;;;;;5014956;28;20332;-66
2022/12/28 12:27:31;;;;;;;;;;;9.60;99.90;;;;;;5014363;28;19916;-67
2022/12/28 12:30:01;;;;;;;;;;;9.60;99.90;;;;;;5002421;28;20371;-67
2022/12/28 12:32:35;;;;;;;;;;;9.50;99.90;;;;;;5014583;28;19972;-67
2022/12/28 12:35:03;;;;;;;;;;;9.50;99.90;;;;;;5014037;28;19937;-67
2022/12/28 12:37:40;;;;;;;;;;;9.50;99.90;;;;;;5014098;28;19925;-68
2022/12/28 12:40:05;;;;;;;;;;;9.70;99.90;;;;;;4996180;28;19956;-67
2022/12/28 12:42:49;;;;;;;;;;;9.90;99.90;;;;;;5015386;28;19913;-73
2022/12/28 12:45:23;;;;;;;;;;;9.80;99.90;;;;;;5018970;28;19909;-70
2022/12/28 12:48:07;;;;;;;;;;;9.60;99.90;;;;;;5013511;28;20384;-73
2022/12/28 12:50:41;;;;;;;;;;;9.50;99.90;;;;;;5001353;28;19909;-71
2022/12/28 12:53:13;;;;;;;;;;;9.50;99.90;;;;;;5015921;28;19925;-73
2022/12/28 12:55:39;;;;;;;;;;;9.50;99.90;;;;;;5013467;28;20276;-67
2022/12/28 12:58:14;;;;;;;;;;;9.40;99.90;;;;;;5013211;28;19918;-72
2022/12/28 13:00:48;;;;;;;;;;;9.40;99.90;;;;;;4995316;28;19916;-72
2022/12/28 13:03:17;;;;;;;;;;;9.40;99.90;;;;;;5012581;28;20308;-72
2022/12/28 13:05:53;;;;;;;;;;;9.50;99.90;;;;;;5012765;28;19909;-73
2022/12/28 13:08:20;;;;;;;;;;;9.60;99.90;;;;;;5000727;28;19921;-71
2022/12/28 13:10:47;;;;;;;;;;;9.60;99.90;;;;;;5014068;28;19921;-67
2022/12/28 13:13:33;;;;;;;;;;;9.40;99.90;;;;;;4996526;28;19922;-67
2022/12/28 13:16:04;;;;;;;;;;;9.40;99.90;;;;;;5014798;28;19909;-66
2022/12/28 13:18:29;;;;;;;;;;;9.30;99.90;;;;;;5014005;28;19928;-67
2022/12/28 13:20:59;;;;;;;;;;;9.20;99.90;;;;;;4996320;28;19910;-67
2022/12/28 13:23:26;;;;;;;;;;;9.20;99.90;;;;;;5012906;28;19940;-67
2022/12/28 13:25:53;;;;;;;;;;;9.10;99.90;;;;;;5014308;28;19910;-68
2022/12/28 13:28:21;;;;;;;;;;;9.00;99.90;;;;;;5013413;28;20368;-71
2022/12/28 13:31:16;;;;;;;;;;;9.00;99.90;;;;;;4993964;28;19971;-68
2022/12/28 13:33:41;;;;;;;;;;;9.00;99.90;;;;;;4996779;28;19918;-72
2022/12/28 13:36:16;;;;;;;;;;;9.10;99.90;;;;;;5011866;28;19917;-74
2022/12/28 13:38:41;;;;;;;;;;;9.10;99.90;;;;;;5017858;28;21131;-74
2022/12/28 13:41:15;;;;;;;;;;;9.10;99.90;;;;;;5012398;28;19914;-73
2022/12/28 13:43:50;;;;;;;;;;;9.10;99.90;;;;;;5013414;28;20312;-75
2022/12/28 13:46:16;;;;;;;;;;;9.20;99.90;;;;;;5012340;28;19916;-73
2022/12/28 13:48:45;;;;;;;;;;;9.40;99.90;;;;;;5003436;28;19941;-74
2022/12/28 13:51:13;;;;;;;;;;;9.20;99.90;;;;;;5012748;28;19916;-74
2022/12/28 13:53:41;;;;;;;;;;;9.20;99.90;;;;;;5013214;28;19909;-74
2022/12/28 13:56:11;;;;;;;;;;;9.20;99.90;;;;;;5013002;28;19913;-74
2022/12/28 13:58:38;;;;;;;;;;;9.10;99.90;;;;;;4995690;28;19987;-73
2022/12/28 14:01:08;;;;;;;;;;;9.10;99.90;;;;;;5012950;28;19909;-73
2022/12/28 14:03:36;;;;;;;;;;;9.10;99.90;;;;;;5012160;28;19910;-68
2022/12/28 14:06:02;;;;;;;;;;;9.10;99.90;;;;;;5013551;28;19916;-75
2022/12/28 14:08:31;;;;;;;;;;;9.10;99.90;;;;;;5012224;28;20379;-75
2022/12/28 14:10:58;;;;;;;;;;;9.10;99.90;;;;;;4975531;28;19945;-75
2022/12/28 14:13:23;;;;;;;;;;;9.10;99.90;;;;;;5007278;28;20357;-74
2022/12/28 14:15:49;;;;;;;;;;;9.20;99.90;;;;;;5012463;28;19924;-68
2022/12/28 14:18:16;;;;;;;;;;;9.80;99.90;;;;;;5012449;28;19917;-68
2022/12/28 14:20:49;;;;;;;;;;;9.60;99.90;;;;;;4994445;28;20000;-68
2022/12/28 14:23:24;;;;;;;;;;;9.40;99.90;;;;;;4984766;28;19909;-66
2022/12/28 14:25:51;;;;;;;;;;;9.30;99.90;;;;;;5011964;28;19909;-66
2022/12/28 14:28:23;;;;;;;;;;;9.20;99.90;;;;;;5011564;28;19913;-67
2022/12/28 14:30:51;;;;;;;;;;;9.10;99.90;;;;;;5012901;28;19909;-67
2022/12/28 14:33:21;;;;;;;;;;;9.10;99.90;;;;;;5011567;28;19917;-66
2022/12/28 14:35:49;;;;;;;;;;;9.10;99.90;;;;;;4995325;28;19932;-66
2022/12/28 14:38:20;;;;;;;;;;;9.10;99.90;;;;;;5015440;28;19917;-66
2022/12/28 14:40:53;;;;;;;;;;;9.10;99.90;;;;;;5011383;28;19910;-66
2022/12/28 14:43:22;;;;;;;;;;;9.10;99.90;;;;;;4994873;28;19995;-66
2022/12/28 14:45:48;;;;;;;;;;;9.20;99.90;;;;;;5012763;28;19909;-67
2022/12/28 14:48:36;;;;;;;;;;;9.10;99.90;;;;;;5011604;28;19916;-66
2022/12/28 14:51:21;;;;;;;;;;;9.10;99.90;;;;;;5014905;28;19909;-73
2022/12/28 14:54:07;;;;;;;;;;;9.10;99.90;;;;;;5027380;28;19920;-66
2022/12/28 14:56:33;;;;;;;;;;;9.10;99.90;;;;;;4982987;28;19945;-66
2022/12/28 14:58:59;;;;;;;;;;;9.10;99.90;;;;;;5012720;28;20284;-66
2022/12/28 15:01:38;;;;;;;;;;;9.10;99.90;;;;;;5012094;28;19973;-66
2022/12/28 15:04:04;;;;;;;;;;;9.10;99.90;;;;;;5007644;28;19909;-68